Pavel Krejci

Recruteur en chef - Slavia Prague
20 Févr 2028
Dimanche
Processus

Personnalité

Adaptabilité (3) Ambition (16) Controverse (16) Loyauté (18) Pression (7) Professionnalisme (3) Sportivité (6) Tempérament (20)

Profil

Style d'entraînement Démocratique
Diplôme Continental B
Détermination 6
Gestion des joueurs 8
Motivation 13
Discipline 13
Satisfaction professionnelle
62%
Fatigue
0%
Rôle Recruteur en chef
Salaire 18.1K p/s
Contrat 14.03.2030

Performance

Comportement Bon
Efficacité de l'entraînement
37%
Développement des joueurs
40%
Prévention des blessures
45%
Mise en place tactique
50%

Événements récents

A participé à une réunion de recrutement maintenant
A recommandé une cible de transfert maintenant
A recommandé une cible de transfert maintenant
A recommandé une cible de transfert maintenant
A recommandé une cible de transfert maintenant
A évalué un joueur 7j
A évalué un joueur 7j
A évalué un joueur 7j

Suivi en cours

201
Joueur Club Statut Capacité Confiance Observé Dernière observation Dernier vote
Esquerdinha Shrewsbury Town Négociation 118 / 131 40% 3 12.02.2028 -
Izan Merino Málaga Actif 127 / 136 40% 3 12.02.2028 -
Avery Appiah Ajax Actif 119 / 127 40% 1 12.02.2028 -
Mikkel Hope Haugesund Actif 99 / 101 40% 5 11.02.2028 -
Giovanni Leoni Bradford City Actif 140 / 147 40% 2 11.02.2028 -
Jofre Torrents Ajax Actif 131 / 134 40% 2 11.02.2028 -
Ayden Heaven Luton Town Actif 148 / 152 40% 5 10.02.2028 -
Kauã Moraes Cruzeiro Actif 132 / 126 40% 1 10.02.2028 -
Christos Mouzakitis Hull City Actif 136 / 146 40% 7 09.02.2028 -
Daniel Banjaqui Benfica Actif 122 / 125 40% 2 09.02.2028 -
Joel McGregor Swindon Town Actif 98 / 104 40% 1 09.02.2028 -
Dmitry Pestryakov Dinamo Moscow Actif 117 / 118 40% 2 08.02.2028 -
Noahkai Banks Hamburger SV Actif 139 / 147 40% 1 07.02.2028 -
Josh King Chelsea Actif 142 / 146 40% 5 31.01.2028 -
Marek Havran Banik Ostrava Actif 100 / 100 86% 1 24.01.2028 Approuver
Bénie Traoré New York City Actif 126 / 131 40% 5 17.01.2028 -
Rafael Navarro St. Louis CITY SC Actif 126 / 133 40% 2 17.01.2028 -
Callum O'Hare Sheffield United Actif 138 / 131 40% 1 17.01.2028 -
Dejan Joveljić Seattle Sounders Actif 133 / 130 40% 3 01.01.2028 -
Nicolás Fernández Mercau Independiente Actif 134 / 134 67% 1 01.01.2028 Approuver
Alexandr Bužek Slovan Liberec Actif 114 / 119 86% 1 01.01.2028 Approuver
Brennan Johnson Stoke City Actif 150 / 145 40% 1 31.12.2027 -
Ruben van Bommel Ferencvaros Actif 138 / 140 40% 1 31.12.2027 -
Hervin Goyes Deportivo Pasto Actif 102 / 117 40% 10 10.12.2027 -
Myles Lewis-Skelly Birmingham Actif 154 / 158 40% 7 08.12.2027 -
Ricky Atletico Venezuela Actif 100 / 98 40% 9 08.12.2027 -
Joel Ezra Enyimba Actif 95 / 109 40% 4 07.12.2027 -
Luis Otávio Colorado Rapids Actif 107 / 123 40% 3 04.12.2027 -
Marvelous Freedom Ikorodu City Actif 89 / 99 40% 5 04.12.2027 -
Ronan Kpakio Cardiff City Actif 119 / 130 40% 2 04.12.2027 -
Mads Bomholt Stabaek Actif 108 / 108 40% 6 02.12.2027 -
Gift Udoh Ikorodu City Actif 85 / 93 40% 6 27.11.2027 -
Hosea Michael Remo Stars Actif 88 / 100 40% 4 26.11.2027 -
Colin Guske Orlando City Actif 96 / 109 40% 1 26.11.2027 -
Caleb Yirenkyi Coventry City Actif 143 / 143 40% 4 22.11.2027 -
Matteo Pérez Vinlöf Dinamo Zagreb Actif 124 / 122 40% 1 22.11.2027 -
Ignacio Fernández Boston River Actif 96 / 111 40% 8 18.11.2027 -
Tyson Pearce St. Louis CITY SC Actif 97 / 108 40% 5 18.11.2027 -
Bahia Criciuma Actif 114 / 129 40% 1 17.11.2027 -
Archie Gray Derby County Actif 150 / 150 40% 4 05.11.2027 -
Alejandro Almaraz Nueva Chicago Actif 106 / 126 40% 4 03.11.2027 -
Dominik Chong Qui Atlanta United FC Actif 93 / 94 40% 4 01.11.2027 -
Olaniyi Saheed Kwara United Actif 96 / 95 40% 5 30.10.2027 -
Diego Vargas San Marcos de Arica Actif 96 / 97 40% 2 30.10.2027 -
Fillip Jenssen Riise Stabaek Actif 99 / 112 40% 2 28.10.2027 -
Adrian Gill Atlanta United FC Actif 94 / 94 40% 1 28.10.2027 -
Tobias Moi Bodo/Glimt Actif 106 / 105 40% 1 28.10.2027 -
Jovan Milosavljević Kalmar FF Actif 102 / 105 40% 2 26.10.2027 -
Godwin Oham Warri Wolves Actif 92 / 96 40% 3 26.10.2027 -
Josh Nichols Tranmere Rovers Actif 116 / 120 40% 1 24.10.2027 -
Jens Hjertø-Dahl Hull City Actif 128 / 128 40% 1 22.10.2027 -
Julián Bazán Philadelphia Union Actif 115 / 113 40% 3 18.10.2027 -
Juan Morán Godoy Cruz Actif 106 / 119 40% 1 09.10.2027 -
José Correa Deportivo Tachira Actif 93 / 108 40% 4 07.10.2027 -
Esteban de Lima Tacuarembo Actif 89 / 108 40% 3 06.10.2027 -
Chibueze Oputa Rangers International Actif 91 / 88 40% 1 06.10.2027 -
Celías Ingenthron Vélez Actif 119 / 125 40% 1 03.10.2027 -
Muminhon Bahodirxonov Neftchi Actif 93 / 89 40% 2 23.09.2027 -
Nika Kvaratskhelia Tskhinvali Actif 96 / 96 40% 1 22.09.2027 -
Mpho Khethang AS Police Actif 85 / 100 40% 3 17.09.2027 -
Teo Rodríguez Pagano River Plate Actif 121 / 116 40% 2 17.09.2027 -
Agustín Obregón River Plate Actif 108 / 120 40% 1 15.09.2027 -
Malick Yalcouyé Brighton Actif 128 / 132 40% 1 14.09.2027 -
Zhansūltan Mūkhametzhanov Irtysh Actif 84 / 94 40% 1 12.09.2027 -
Mbekezeli Mbokazi Chicago Fire Actif 125 / 139 40% 2 10.09.2027 -
Mauro Carrizo Atlético Tucumán Actif 101 / 112 40% 1 10.09.2027 -
Andrea Bertoncini Carpi Actif 95 / 102 40% 1 16.08.2027 -
Darryl Bakola Padova Actif 115 / 118 40% 1 16.08.2027 -
Kazunari Kita Real Sociedad Actif 100 / 109 40% 1 03.08.2027 -
Juan Giménez Celta Actif 122 / 127 40% 1 03.08.2027 -
Dylan Lawlor Cardiff City Actif 115 / 130 40% 1 06.07.2027 -
Gonçalo Oliveira Benfica Actif 113 / 122 40% 1 06.07.2027 -
Dominik Pleštil Bohemians 1905 Actif 110 / 110 83% 1 03.06.2027 Approuver
Facundo Torres LOSC Lille Perdu 134 / 134 67% 1 01.06.2027 Approuver
Pedro de la Vega FC Dallas Actif 133 / 134 66% 1 01.06.2027 Approuver
Bertrand Traoré Sunderland Actif 132 / 135 40% 1 01.06.2027 -
Elijah Adebayo Luton Town Actif 129 / 116 40% 1 01.06.2027 -
Martin Jedlička Banik Ostrava Actif 124 / 135 40% 10 29.05.2027 -
Max O'Leary West Bromwich Albion Actif 129 / 129 40% 7 28.05.2027 -
James Trafford Leeds United Actif 143 / 141 40% 5 28.05.2027 -
Michael Cooper Sheffield United Actif 137 / 131 40% 2 28.05.2027 -
Nikola Vasilj Al-Diriyah Actif 136 / 130 40% 12 27.05.2027 -
Robin Roefs Sunderland Actif 142 / 149 40% 5 27.05.2027 -
Dean Henderson Crystal Palace Actif 150 / 157 40% 11 24.05.2027 -
Alex Meret Napoli Actif 152 / 159 40% 8 24.05.2027 -
Mads Hermansen West Ham United Actif 146 / 146 40% 5 23.05.2027 -
Michele Cerofolini Bari Actif 126 / 126 40% 5 20.05.2027 -
Arijanet Murić Sassuolo Actif 146 / 138 40% 6 19.05.2027 -
Balázs Tóth Blackburn Rovers Actif 132 / 128 40% 4 19.05.2027 -
Radek Vítek Middlesbrough Actif 136 / 144 40% 5 16.05.2027 -
Sipho Chaine Orlando Pirates Actif 114 / 128 40% 3 14.05.2027 -
Christian Walton Ipswich Town Actif 135 / 127 40% 5 14.05.2027 -
Daniel Iversen Preston Actif 134 / 131 40% 4 12.05.2027 -
Maduka Okoye Udinese Actif 141 / 145 40% 3 12.05.2027 -
Egil Selvik Watford Actif 125 / 124 40% 4 06.05.2027 -
Grégoire Coudert Burnley Actif 131 / 133 40% 6 28.04.2027 -
Jonathan Klinsmann Cesena Actif 126 / 125 40% 4 28.04.2027 -
Edoardo Motta Lazio Actif 124 / 125 40% 1 26.04.2027 -
Bento Al-Nassr Actif 129 / 141 40% 13 07.04.2027 -
Riccardo Gagno Vicenza Actif 126 / 118 40% 3 03.04.2027 -
Wladimiro Falcone Lecce Actif 143 / 143 40% 6 30.03.2027 -
Nicolas Schmid Portsmouth Actif 126 / 127 40% 2 10.03.2027 -
Zack Steffen Spartak Moscow Actif 128 / 138 40% 11 28.02.2027 -
Kyrylo Fesiun Shakhtar Actif 118 / 118 40% 4 09.02.2027 -
Andrea Pinamonti Lazio Actif 143 / 136 40% 2 18.01.2027 -
Dantaye Gilbert Banik Ostrava Actif 104 / 99 76% 1 18.01.2027 Approuver
Tyrese Campbell Sheffield United Actif 129 / 133 40% 1 18.01.2027 -
Oli McBurnie Hull City Actif 136 / 138 40% 1 18.01.2027 -
David Brooks Bournemouth Actif 144 / 133 40% 1 13.01.2027 -
Luciano Gondou CSKA Moscow Actif 135 / 129 40% 3 01.01.2027 -
Yoane Wissa Newcastle United Actif 148 / 139 40% 1 01.01.2027 -
Armando Broja Burnley Actif 129 / 127 40% 1 31.12.2026 -
Lukas Jensen Millwall Actif 120 / 116 40% 1 26.12.2026 -
George Wickens Lincoln City Actif 114 / 108 40% 2 25.12.2026 -
Aune Heggebø West Bromwich Albion Actif 127 / 131 40% 1 25.12.2026 -
Hendrik Bonmann Ludogorets Actif 128 / 126 40% 9 22.12.2026 -
Caoimhin Kelleher Brentford Actif 154 / 150 40% 1 22.12.2026 -
Florian Wiegele Viktoria Plzen Actif 113 / 110 40% 5 20.12.2026 -
Matouš Trmal Teplice Actif 115 / 118 40% 7 18.12.2026 -
Daniel FC Dallas Actif 132 / 128 40% 6 18.12.2026 -
Dayne St. Clair Inter Miami CF Actif 133 / 118 40% 5 18.12.2026 -
Oston O'runov Persepolis Actif 122 / 128 40% 1 18.12.2026 -
Reda Khadra Qarabag Actif 125 / 140 40% 1 16.12.2026 -
Aljaž Ivačič DAC Dunajska Streda Actif 119 / 122 40% 6 14.12.2026 -
Vitor Eudes Fluminense Actif 116 / 126 40% 1 12.12.2026 -
Maxime Crépeau Orlando City Actif 115 / 121 40% 7 11.12.2026 -
Facundo Cambeses Racing Club Actif 132 / 138 40% 3 11.12.2026 -
David Pech Mlada Boleslav Actif 111 / 124 40% 1 10.12.2026 -
Siyanda Ndlovu Bloemfontein Celtic Actif 123 / 113 40% 1 10.12.2026 -
Heorhii Bushchan Polissia Actif 128 / 123 40% 2 08.12.2026 -
Dominik Takáč Slovan Bratislava Actif 125 / 131 40% 2 08.12.2026 -
Iván Arboleda Sarmiento Actif 123 / 109 40% 3 06.12.2026 -
Marquinhos Spartak Moscow Actif 130 / 124 40% 1 04.12.2026 -
Jhon Jhon Zenit Actif 133 / 134 40% 1 04.12.2026 -
Bienvenue Kanakimana Zbrojovka Brno Actif 110 / 107 40% 2 03.12.2026 -
Tomás Marchiori Vélez Actif 136 / 116 40% 3 01.12.2026 -
Emilio Di Fulvio Colegiales Actif 124 / 124 40% 1 29.11.2026 -
Lovre Rogić HNK Rijeka Actif 115 / 118 40% 2 27.11.2026 -
Heorhii Yermakov Metalist Actif 112 / 115 40% 1 27.11.2026 -
José Devecchi San Lorenzo Actif 110 / 127 40% 3 26.11.2026 -
Marko Malenica NK Osijek Actif 117 / 105 40% 1 23.11.2026 -
Marc-Aurèle Caillard Debrecen Actif 112 / 119 40% 1 23.11.2026 -
Lukas Gütlbauer Wolfsberger AC Actif 112 / 113 40% 4 22.11.2026 -
Wessam Abou Ali Columbus Crew Actif 126 / 133 40% 3 21.11.2026 -
Daniil Khudyakov Sturm Graz Actif 119 / 129 40% 4 21.11.2026 -
Roman Celentano FC Cincinnati Actif 126 / 112 40% 5 21.11.2026 -
Manfred Ugalde Spartak Moscow Actif 128 / 129 40% 1 21.11.2026 -
Karel Spáčil Viktoria Plzen Actif 129 / 137 40% 3 19.11.2026 -
David Miculescu FCSB Actif 126 / 119 40% 2 19.11.2026 -
Patrick Schulte Columbus Crew Actif 121 / 131 40% 7 18.11.2026 -
Matt Freese New York City Actif 126 / 128 40% 7 09.11.2026 -
Santiago Silva CFR Cluj Actif 115 / 117 40% 3 08.11.2026 -
Denis Adamov Zenit Actif 122 / 118 40% 3 05.11.2026 -
Vojtěch Vorel Mlada Boleslav Actif 117 / 120 40% 1 05.11.2026 -
John Pulskamp Sporting Kansas City Actif 118 / 125 40% 1 03.11.2026 -
Martin Zlomislić Qarabag Actif 111 / 119 40% 4 30.10.2026 -
Angus Gunn San Jose Earthquakes Actif 123 / 111 40% 4 29.10.2026 -
Bruno Varela Najran Actif 126 / 117 40% 1 28.10.2026 -
Paul Gartler Rapid Wien Actif 119 / 117 40% 1 26.10.2026 -
Ľubomír Belko Viking Actif 132 / 138 40% 1 24.10.2026 -
Martín Ojeda Orlando City Actif 142 / 143 40% 1 21.10.2026 -
James Pantemis Portland Timbers Actif 107 / 121 40% 4 17.10.2026 -
Daniel Karlsbakk Sarpsborg 08 Actif 118 / 113 40% 1 16.10.2026 -
Lucas Bruera Carabobo Actif 118 / 107 40% 1 14.10.2026 -
Alexander Aravena Portland Timbers Actif 124 / 137 40% 2 10.10.2026 -
Brandon Petersen Kaizer Chiefs Actif 108 / 125 40% 3 06.10.2026 -
Valentin Cojocaru Pogon Actif 122 / 111 40% 2 05.10.2026 -
Josh Sargent Toronto FC Actif 129 / 114 40% 4 03.10.2026 -
Mojmír Chytil NK Maribor Actif 134 / 138 40% 1 03.10.2026 -
Ho-yeon Jung Minnesota United FC Actif 132 / 124 40% 2 30.09.2026 -
Đorđe Nikolić Cukaricki Actif 119 / 108 40% 1 29.09.2026 -
Cheikh Sabaly Vancouver Whitecaps Actif 128 / 131 40% 3 28.09.2026 -
Juan Manuel Boselli Krasnodar Actif 127 / 113 40% 1 28.09.2026 Plus d'infos
Jesus Ferreira Seattle Sounders Actif 133 / 139 40% 1 25.09.2026 -
Karim Konaté Red Bull Salzburg Actif 136 / 145 40% 1 25.09.2026 -
Leopold Wahlstedt Rosenborg Actif 125 / 107 40% 1 25.09.2026 -
Diego Romero Universitario Actif 125 / 108 40% 2 22.09.2026 -
Andreas Hansen FC Nordsjaelland Actif 113 / 120 40% 2 21.09.2026 -
Mateusz Kochalski Dynamo Kyiv Actif 127 / 123 40% 1 20.09.2026 -
Oscar Hedvall Valerenga Actif 109 / 105 40% 1 17.09.2026 -
Facundo Altamirano San Lorenzo Actif 113 / 123 40% 1 16.09.2026 -
Kévin Denkey FC Cincinnati Actif 128 / 130 40% 1 15.09.2026 -
David Da Costa Portland Timbers Actif 123 / 133 40% 1 15.09.2026 -
Iván Angulo Orlando City Actif 137 / 127 40% 1 15.09.2026 -
Youssoufa Moukoko FC Copenhagen Actif 124 / 122 40% 2 11.09.2026 -
Maurits Kjærgaard Red Bull Salzburg Actif 124 / 128 40% 1 11.09.2026 -
Matevž Vidovšek Olimpija Ljubljana Actif 122 / 125 40% 1 06.09.2026 -
Paul Izzo Randers Actif 113 / 106 40% 1 06.09.2026 -
Duncan McGuire Houston Dynamo Actif 117 / 134 40% 1 16.08.2026 -
Agustín Anello Philadelphia Union Actif 123 / 126 40% 2 15.08.2026 -
Federico Girotti Alianza Lima Actif 130 / 123 40% 1 14.08.2026 -
Fiete Arp OB Actif 117 / 125 40% 1 12.08.2026 -
Telasco Segovia Inter Miami CF Actif 122 / 118 40% 1 12.08.2026 -
Griffin Yow New England Revolution Actif 122 / 139 40% 1 12.08.2026 -
Gabriel Pirani San Diego Football Club Actif 129 / 128 40% 1 11.08.2026 -
Tomás Chancalay Minnesota United FC Actif 134 / 121 40% 1 04.08.2026 -
Yorbe Vertessen Red Bull Salzburg Actif 123 / 118 40% 1 03.08.2026 -
Mateusz Bogusz Houston Dynamo Actif 116 / 134 40% 1 03.08.2026 -
Brenden Aaronson Leeds United Actif 133 / 129 40% 1 01.08.2026 -
Lukas Nmecha Leeds United Actif 126 / 126 40% 1 01.08.2026 -
Eduard Löwen San Jose Earthquakes Actif 131 / 125 40% 1 01.08.2026 -